Time;durP1;ratioP1;P1;durP2;ratioP2;P2;SDS_P1;SDS_P2;PMS_P1;PMS_P2;Temp;Humidity;BMP_temperature;BMP_pressure;BME280_temperature;BME280_humidity;BME280_pressure;Samples;Min_cycle;Max_cycle;Signal;HPM_P1;HPM_P2
2023/12/07 00:01:29;;;;;;;67.57;36.50;;;3.90;99.90;;;;;;5006720;28;20026;-71
2023/12/07 00:03:55;;;;;;;57.83;32.22;;;3.90;99.90;;;;;;5010977;28;20026;-71
2023/12/07 00:06:21;;;;;;;56.08;34.08;;;3.90;99.90;;;;;;5006094;28;20022;-71
2023/12/07 00:08:46;;;;;;;54.25;32.65;;;3.90;99.90;;;;;;5010048;28;20394;-71
2023/12/07 00:11:12;;;;;;;57.72;33.92;;;4.00;99.90;;;;;;5006682;28;20402;-72
2023/12/07 00:13:38;;;;;;;54.58;32.00;;;3.90;99.90;;;;;;5008703;28;20495;-71
2023/12/07 00:16:04;;;;;;;54.33;31.45;;;3.90;99.90;;;;;;5007266;28;20029;-71
2023/12/07 00:18:29;;;;;;;61.55;34.80;;;3.80;99.90;;;;;;5008448;28;20360;-71
2023/12/07 00:20:55;;;;;;;60.40;33.78;;;3.80;99.90;;;;;;5005905;28;20030;-71
2023/12/07 00:23:21;;;;;;;50.78;31.52;;;3.80;99.90;;;;;;5008692;28;20363;-71
2023/12/07 00:25:46;;;;;;;57.58;33.42;;;3.80;99.90;;;;;;5009127;28;20049;-71
2023/12/07 00:28:12;;;;;;;51.00;30.77;;;3.80;99.90;;;;;;5009044;28;20074;-71
2023/12/07 00:30:38;;;;;;;49.78;27.98;;;3.80;99.90;;;;;;5008899;28;20030;-71
2023/12/07 00:33:03;;;;;;;43.35;26.38;;;3.80;99.90;;;;;;5006175;28;20032;-71
2023/12/07 00:35:29;;;;;;;45.45;26.63;;;3.90;99.90;;;;;;5008720;28;20037;-70
2023/12/07 00:37:56;;;;;;;45.13;27.45;;;3.90;99.90;;;;;;5008010;28;20048;-71
2023/12/07 00:40:22;;;;;;;52.55;27.58;;;3.90;99.90;;;;;;5008549;28;20039;-70
2023/12/07 00:42:48;;;;;;;52.63;29.02;;;3.80;99.90;;;;;;5008213;28;20038;-70
2023/12/07 00:45:14;;;;;;;47.15;27.30;;;3.80;99.90;;;;;;5010673;28;20037;-70
2023/12/07 00:47:40;;;;;;;49.03;27.05;;;3.80;99.90;;;;;;5008777;28;20386;-70
2023/12/07 00:50:07;;;;;;;54.88;28.73;;;3.80;99.90;;;;;;5011099;28;20156;-70
2023/12/07 00:52:33;;;;;;;52.10;28.15;;;3.80;99.90;;;;;;5008149;28;20057;-70
2023/12/07 00:54:58;;;;;;;54.13;29.55;;;3.80;99.90;;;;;;5010384;28;20478;-71
2023/12/07 00:57:24;;;;;;;54.28;29.08;;;3.70;99.90;;;;;;5014686;28;20054;-70
2023/12/07 00:59:50;;;;;;;46.20;28.40;;;3.70;99.90;;;;;;5012795;28;20041;-71
2023/12/07 01:02:15;;;;;;;52.70;31.10;;;3.70;99.90;;;;;;5010351;28;20049;-71
2023/12/07 01:04:41;;;;;;;52.60;30.00;;;3.70;99.90;;;;;;5012912;28;20390;-71
2023/12/07 01:07:07;;;;;;;55.25;28.85;;;3.60;99.90;;;;;;5013653;28;20459;-71
2023/12/07 01:09:33;;;;;;;47.25;27.48;;;3.70;99.90;;;;;;5013479;28;20044;-70
2023/12/07 01:11:59;;;;;;;52.60;28.58;;;3.60;99.90;;;;;;5010517;28;20028;-70
2023/12/07 01:14:25;;;;;;;61.85;30.48;;;3.60;99.90;;;;;;5013384;28;20034;-70
2023/12/07 01:16:50;;;;;;;63.00;31.52;;;3.60;99.90;;;;;;5013232;28;20455;-70
2023/12/07 01:19:16;;;;;;;74.63;33.30;;;3.60;99.90;;;;;;5013495;28;20543;-70
2023/12/07 01:21:42;;;;;;;69.55;33.00;;;3.60;99.90;;;;;;5008615;28;20112;-70
2023/12/07 01:24:09;;;;;;;83.97;35.25;;;3.60;99.90;;;;;;5012365;28;20069;-70
2023/12/07 01:26:35;;;;;;;102.28;34.20;;;3.60;99.90;;;;;;5010270;28;20025;-70
2023/12/07 01:29:01;;;;;;;74.30;28.50;;;3.60;99.90;;;;;;5013766;28;20045;-70
2023/12/07 01:31:27;;;;;;;83.53;31.00;;;3.50;99.90;;;;;;5009251;28;20061;-69
2023/12/07 01:33:52;;;;;;;118.40;33.70;;;3.50;99.90;;;;;;5013181;28;20049;-70
2023/12/07 01:36:18;;;;;;;384.35;51.67;;;3.50;99.90;;;;;;5009771;28;20028;-70
2023/12/07 01:38:44;;;;;;;79.88;28.35;;;3.50;99.90;;;;;;5012417;28;20479;-70
2023/12/07 01:41:10;;;;;;;322.77;49.05;;;3.40;99.90;;;;;;5012032;28;20037;-70
2023/12/07 01:43:36;;;;;;;100.68;31.75;;;3.40;99.90;;;;;;5008948;28;20030;-70
2023/12/07 01:46:02;;;;;;;82.60;27.50;;;3.50;99.90;;;;;;5012591;28;20030;-70
2023/12/07 01:48:29;;;;;;;75.40;30.15;;;3.50;99.90;;;;;;5011073;28;20032;-70
2023/12/07 01:50:57;;;;;;;96.95;30.58;;;3.30;99.90;;;;;;5011268;28;20034;-70
2023/12/07 01:53:24;;;;;;;191.43;39.08;;;3.30;99.90;;;;;;5013762;28;20033;-69
2023/12/07 01:55:51;;;;;;;59.53;25.92;;;3.40;99.90;;;;;;5009093;28;20021;-69
2023/12/07 01:58:19;;;;;;;82.32;28.85;;;3.30;99.90;;;;;;5012195;28;20457;-70
2023/12/07 02:00:46;;;;;;;143.07;33.47;;;3.40;99.90;;;;;;5010834;28;20158;-70
2023/12/07 02:03:12;;;;;;;95.53;30.33;;;3.40;99.90;;;;;;5010065;28;20030;-73
2023/12/07 02:05:41;;;;;;;95.65;30.00;;;3.50;99.90;;;;;;5009608;28;20491;-69
2023/12/07 02:08:06;;;;;;;64.15;26.35;;;3.50;99.90;;;;;;5012353;28;20406;-69
2023/12/07 02:10:32;;;;;;;54.10;23.95;;;3.40;99.90;;;;;;5010178;28;20034;-70
2023/12/07 02:12:58;;;;;;;50.17;23.95;;;3.40;99.90;;;;;;5012244;28;20021;-69
2023/12/07 02:15:23;;;;;;;115.68;32.78;;;3.40;99.90;;;;;;5012205;28;20025;-69
2023/12/07 02:17:55;;;;;;;72.63;26.88;;;3.40;99.90;;;;;;4992709;28;20069;-69
2023/12/07 02:20:31;;;;;;;60.03;23.27;;;3.50;99.90;;;;;;5011161;28;20108;-69
2023/12/07 02:23:02;;;;;;;52.35;23.73;;;3.40;99.90;;;;;;4991355;28;20079;-70
2023/12/07 02:25:53;;;;;;;84.93;29.90;;;3.40;99.90;;;;;;5010758;28;20030;-72
2023/12/07 02:28:19;;;;;;;58.28;24.40;;;3.40;99.90;;;;;;5008121;28;20034;-70
2023/12/07 02:30:45;;;;;;;54.13;23.58;;;3.30;99.90;;;;;;5011460;28;20083;-70
2023/12/07 02:33:11;;;;;;;59.63;24.15;;;3.20;99.90;;;;;;5012759;28;20033;-70
2023/12/07 02:35:38;;;;;;;60.10;25.25;;;3.30;99.90;;;;;;5007968;28;20052;-69
2023/12/07 02:38:07;;;;;;;44.65;20.98;;;3.30;99.90;;;;;;5012240;28;20026;-70
2023/12/07 02:40:34;;;;;;;43.28;20.40;;;3.40;99.90;;;;;;5012003;28;20022;-69
2023/12/07 02:43:01;;;;;;;70.47;24.00;;;3.50;99.90;;;;;;5008148;28;20026;-70
2023/12/07 02:45:27;;;;;;;91.60;24.95;;;3.50;99.90;;;;;;5012301;28;20025;-70
2023/12/07 02:47:53;;;;;;;65.47;23.48;;;3.50;99.90;;;;;;5008829;28;20117;-69
2023/12/07 02:50:19;;;;;;;59.75;21.95;;;3.50;99.90;;;;;;5010068;28;20542;-69
2023/12/07 02:52:45;;;;;;;85.88;21.48;;;3.40;99.90;;;;;;5010158;28;20101;-69
2023/12/07 02:55:11;;;;;;;64.53;21.63;;;3.30;99.90;;;;;;5010949;28;20529;-69
2023/12/07 02:57:37;;;;;;;54.13;18.75;;;3.30;99.90;;;;;;5011941;28;20073;-70
2023/12/07 03:00:06;;;;;;;59.50;20.45;;;3.40;99.90;;;;;;5008392;28;20034;-69
2023/12/07 03:02:37;;;;;;;47.13;17.35;;;3.40;99.90;;;;;;5010922;28;20014;-70
2023/12/07 03:05:03;;;;;;;51.90;18.27;;;3.30;99.90;;;;;;5008535;28;20948;-70
2023/12/07 03:07:29;;;;;;;40.17;17.20;;;3.40;99.90;;;;;;5009989;28;20484;-69
2023/12/07 03:09:55;;;;;;;45.92;16.88;;;3.40;99.90;;;;;;5007440;28;20033;-71
2023/12/07 03:12:21;;;;;;;58.08;18.48;;;3.50;99.90;;;;;;5011526;28;20394;-69
2023/12/07 03:14:46;;;;;;;58.65;17.40;;;3.50;99.90;;;;;;5009325;28;20432;-69
2023/12/07 03:17:12;;;;;;;46.28;17.77;;;3.40;99.90;;;;;;5007694;28;20026;-71
2023/12/07 03:19:39;;;;;;;42.80;17.85;;;3.40;99.90;;;;;;5010645;28;20037;-69
2023/12/07 03:22:06;;;;;;;58.03;17.90;;;3.40;99.90;;;;;;5009138;28;20113;-69
2023/12/07 03:24:33;;;;;;;50.45;17.23;;;3.50;99.90;;;;;;5011284;28;20026;-69
2023/12/07 03:26:59;;;;;;;45.13;16.20;;;3.60;99.90;;;;;;5010971;28;20080;-69
2023/12/07 03:29:25;;;;;;;67.68;19.77;;;3.60;99.90;;;;;;5008766;28;20046;-69
2023/12/07 03:31:50;;;;;;;122.63;20.70;;;3.60;99.90;;;;;;5010349;28;20558;-70
2023/12/07 03:34:16;;;;;;;100.72;21.60;;;3.60;99.90;;;;;;5009935;28;20531;-70
2023/12/07 03:36:50;;;;;;;80.03;20.55;;;3.50;99.90;;;;;;5009125;28;20063;-70
2023/12/07 03:39:18;;;;;;;94.57;20.27;;;3.60;99.90;;;;;;5010340;28;20030;-69
2023/12/07 03:41:44;;;;;;;60.42;18.70;;;3.50;99.90;;;;;;5007446;28;20108;-69
2023/12/07 03:44:10;;;;;;;80.78;18.48;;;3.50;99.90;;;;;;5011008;28;20033;-69
2023/12/07 03:46:36;;;;;;;211.68;25.58;;;3.40;99.90;;;;;;5008174;28;20525;-69
2023/12/07 03:49:01;;;;;;;51.30;18.23;;;3.50;99.90;;;;;;5007573;28;20491;-70
2023/12/07 03:51:27;;;;;;;174.38;26.23;;;3.50;99.90;;;;;;5010227;28;20046;-69
2023/12/07 03:53:54;;;;;;;77.00;20.10;;;3.50;99.90;;;;;;5010671;28;20112;-69
2023/12/07 03:56:40;;;;;;;65.03;19.88;;;3.60;99.90;;;;;;5011356;28;20360;-69
2023/12/07 03:59:06;;;;;;;73.25;21.83;;;3.70;99.90;;;;;;5009349;28;20113;-71
2023/12/07 04:01:32;;;;;;;122.10;24.40;;;3.60;99.90;;;;;;5007252;28;20057;-69
2023/12/07 04:03:58;;;;;;;66.57;20.10;;;3.70;99.90;;;;;;5011180;28;20108;-70
2023/12/07 04:06:25;;;;;;;67.65;20.95;;;3.80;99.90;;;;;;4987231;28;20130;-69
2023/12/07 04:08:50;;;;;;;81.57;20.67;;;3.70;99.90;;;;;;4993244;28;20089;-71
2023/12/07 04:11:16;;;;;;;68.47;20.60;;;3.70;99.90;;;;;;5007514;28;20555;-71
2023/12/07 04:13:43;;;;;;;57.38;20.10;;;3.70;99.90;;;;;;5010523;28;20034;-69
2023/12/07 04:16:09;;;;;;;78.03;22.02;;;3.70;99.90;;;;;;5007743;28;20026;-69
2023/12/07 04:18:35;;;;;;;60.28;21.83;;;3.70;99.90;;;;;;5009619;28;20026;-70
2023/12/07 04:21:02;;;;;;;74.15;22.73;;;3.80;99.90;;;;;;5007696;28;20112;-69
2023/12/07 04:23:28;;;;;;;150.82;28.50;;;3.80;99.90;;;;;;5007089;28;20014;-70
2023/12/07 04:25:54;;;;;;;104.88;24.63;;;3.90;99.90;;;;;;5008210;28;20041;-69
2023/12/07 04:28:20;;;;;;;136.00;25.52;;;3.90;99.90;;;;;;4990621;28;20037;-69
2023/12/07 04:30:45;;;;;;;88.88;22.45;;;3.90;99.90;;;;;;5014249;28;20030;-69
2023/12/07 04:33:11;;;;;;;94.45;24.27;;;3.90;99.90;;;;;;5007083;28;20500;-69
2023/12/07 04:35:37;;;;;;;251.95;35.53;;;4.00;99.90;;;;;;5014325;28;20076;-69
2023/12/07 04:38:02;;;;;;;264.00;32.33;;;3.90;99.90;;;;;;4997795;28;20025;-69
2023/12/07 04:40:29;;;;;;;64.18;20.23;;;4.00;99.90;;;;;;5010717;28;20461;-69
2023/12/07 04:42:55;;;;;;;100.60;21.30;;;4.00;99.90;;;;;;5014661;28;20029;-69
2023/12/07 04:45:21;;;;;;;145.55;25.20;;;4.00;99.90;;;;;;5011372;28;20104;-69
2023/12/07 04:47:46;;;;;;;84.53;21.13;;;4.00;99.90;;;;;;5012218;28;20034;-69
2023/12/07 04:50:12;;;;;;;66.53;20.02;;;4.00;99.90;;;;;;5012703;28;20052;-69
2023/12/07 04:52:38;;;;;;;63.70;18.08;;;3.90;99.90;;;;;;5011455;28;20037;-69
2023/12/07 04:55:06;;;;;;;60.35;18.52;;;3.90;99.90;;;;;;5013717;28;20371;-69
2023/12/07 04:57:33;;;;;;;109.03;20.98;;;3.90;99.90;;;;;;5011420;28;20026;-69
2023/12/07 04:59:59;;;;;;;70.00;20.20;;;3.90;99.90;;;;;;5012984;28;20057;-70
2023/12/07 05:02:24;;;;;;;123.60;22.73;;;3.80;99.90;;;;;;5011910;28;20057;-69
2023/12/07 05:04:50;;;;;;;80.38;18.95;;;3.90;99.90;;;;;;5012039;28;20088;-70
2023/12/07 05:07:16;;;;;;;192.88;23.55;;;3.80;99.90;;;;;;5013704;28;20026;-70
2023/12/07 05:09:42;;;;;;;51.25;18.33;;;3.70;99.90;;;;;;5009622;28;20778;-69
2023/12/07 05:12:08;;;;;;;68.13;19.90;;;3.80;99.90;;;;;;5011679;28;20021;-69
2023/12/07 05:14:34;;;;;;;60.65;19.33;;;3.80;99.90;;;;;;5012946;28;20027;-70
2023/12/07 05:17:00;;;;;;;98.97;22.33;;;3.80;99.90;;;;;;5009192;28;20108;-68
2023/12/07 05:19:26;;;;;;;108.13;21.85;;;3.60;99.90;;;;;;5013468;28;20080;-69
2023/12/07 05:21:52;;;;;;;73.00;19.25;;;3.50;99.90;;;;;;5010730;28;20030;-69
2023/12/07 05:24:18;;;;;;;55.80;20.73;;;3.50;99.90;;;;;;5013625;28;20101;-71
2023/12/07 05:26:47;;;;;;;61.92;20.20;;;3.60;99.90;;;;;;5013279;28;20034;-69
2023/12/07 05:29:13;;;;;;;66.57;18.50;;;3.70;99.90;;;;;;5010448;28;20038;-69
2023/12/07 05:31:40;;;;;;;101.93;22.63;;;3.70;99.90;;;;;;5014226;28;20532;-69
2023/12/07 05:34:06;;;;;;;141.18;24.00;;;3.70;99.90;;;;;;5010990;28;20406;-69
2023/12/07 05:36:33;;;;;;;78.85;21.52;;;3.60;99.90;;;;;;5010594;28;20096;-68
2023/12/07 05:39:00;;;;;;;58.80;19.67;;;3.60;99.90;;;;;;5013149;28;20438;-68
2023/12/07 05:41:25;;;;;;;116.88;22.85;;;3.70;99.90;;;;;;5009773;28;20026;-68
2023/12/07 05:43:54;;;;;;;59.60;21.40;;;3.80;99.90;;;;;;4996295;28;20030;-69
2023/12/07 05:46:20;;;;;;;69.80;21.85;;;3.90;99.90;;;;;;4994959;28;20120;-75
2023/12/07 05:48:46;;;;;;;135.93;27.13;;;3.80;99.90;;;;;;5013231;28;20460;-68
2023/12/07 05:51:16;;;;;;;66.38;22.80;;;3.80;99.90;;;;;;5010694;28;20494;-69
2023/12/07 05:53:43;;;;;;;157.45;27.95;;;3.80;99.90;;;;;;5012766;28;20026;-68
2023/12/07 05:56:09;;;;;;;252.43;33.35;;;3.80;99.90;;;;;;5010092;28;20473;-69
2023/12/07 05:58:35;;;;;;;310.00;41.10;;;3.80;99.90;;;;;;5013137;28;20022;-70
2023/12/07 06:01:01;;;;;;;70.72;24.52;;;3.80;99.90;;;;;;5008004;28;20135;-69
2023/12/07 06:03:28;;;;;;;102.22;28.55;;;3.80;99.90;;;;;;5011695;28;20093;-69
2023/12/07 06:05:53;;;;;;;98.88;26.15;;;3.80;99.90;;;;;;5002601;28;20062;-69
2023/12/07 06:08:19;;;;;;;86.03;25.08;;;3.70;99.90;;;;;;5011407;28;20033;-68
2023/12/07 06:10:45;;;;;;;101.20;26.85;;;3.70;99.90;;;;;;5010236;28;20479;-69
2023/12/07 06:13:13;;;;;;;89.00;26.85;;;3.80;99.90;;;;;;5012193;28;20036;-68
2023/12/07 06:15:39;;;;;;;65.55;24.17;;;3.80;99.90;;;;;;5010594;28;20040;-68
2023/12/07 06:18:05;;;;;;;170.02;32.35;;;3.90;99.90;;;;;;5010618;28;20105;-69
2023/12/07 06:20:31;;;;;;;100.80;27.95;;;3.90;99.90;;;;;;5009618;28;20125;-69
2023/12/07 06:22:57;;;;;;;88.63;27.42;;;3.90;99.90;;;;;;5011927;28;20026;-69
2023/12/07 06:25:23;;;;;;;84.90;26.92;;;3.90;99.90;;;;;;5012343;28;20041;-69
2023/12/07 06:27:49;;;;;;;110.25;29.17;;;4.00;99.90;;;;;;5009902;28;20088;-68
2023/12/07 06:30:15;;;;;;;75.22;26.45;;;3.90;99.90;;;;;;5008295;28;20434;-68
2023/12/07 06:32:40;;;;;;;74.05;25.63;;;3.90;99.90;;;;;;5011481;28;20030;-68
2023/12/07 06:35:07;;;;;;;73.28;26.00;;;4.00;99.90;;;;;;5010120;28;20509;-68
2023/12/07 06:37:33;;;;;;;76.35;26.85;;;3.90;99.90;;;;;;5011248;28;20018;-68
2023/12/07 06:40:00;;;;;;;77.35;27.15;;;3.90;99.90;;;;;;4994200;28;20018;-68
2023/12/07 06:42:26;;;;;;;82.65;27.58;;;3.90;99.90;;;;;;5009855;28;20045;-68
2023/12/07 06:44:51;;;;;;;68.22;25.50;;;3.80;99.90;;;;;;5012112;28;20033;-68
2023/12/07 06:47:18;;;;;;;65.60;22.52;;;3.80;99.90;;;;;;5009382;28;20679;-68
2023/12/07 06:49:45;;;;;;;61.60;22.92;;;3.60;99.90;;;;;;5012644;28;20092;-69
2023/12/07 06:52:11;;;;;;;68.90;22.92;;;3.60;99.90;;;;;;5008580;28;20049;-68
2023/12/07 06:54:40;;;;;;;60.58;23.33;;;3.60;99.90;;;;;;5012122;28;20033;-68
2023/12/07 06:57:06;;;;;;;58.47;21.92;;;3.70;99.90;;;;;;5007724;28;20033;-69
2023/12/07 06:59:33;;;;;;;61.17;23.23;;;3.70;99.90;;;;;;4993288;28;20027;-68
2023/12/07 07:01:59;;;;;;;56.95;21.42;;;3.70;99.90;;;;;;5007106;28;20029;-68
2023/12/07 07:04:25;;;;;;;78.88;25.25;;;3.60;99.90;;;;;;5010211;28;20112;-68
2023/12/07 07:06:51;;;;;;;59.75;22.00;;;3.70;99.90;;;;;;5010701;28;20098;-68
2023/12/07 07:09:17;;;;;;;69.50;23.75;;;3.70;99.90;;;;;;5008633;28;20057;-68
2023/12/07 07:11:47;;;;;;;62.30;22.42;;;3.80;99.90;;;;;;5008666;28;20038;-67
2023/12/07 07:14:13;;;;;;;68.30;25.17;;;3.80;99.90;;;;;;5010491;28;20036;-68
2023/12/07 07:16:39;;;;;;;62.58;24.50;;;3.80;99.90;;;;;;5008467;28;20394;-69
2023/12/07 07:19:05;;;;;;;68.78;24.15;;;3.90;99.90;;;;;;5011903;28;20030;-71
2023/12/07 07:21:31;;;;;;;72.25;25.63;;;3.90;99.90;;;;;;5008802;28;20022;-68
2023/12/07 07:23:57;;;;;;;67.93;24.92;;;4.00;99.90;;;;;;5009095;28;21177;-70
2023/12/07 07:26:24;;;;;;;85.43;27.38;;;4.00;99.90;;;;;;5007676;28;20022;-67
2023/12/07 07:28:51;;;;;;;79.40;28.50;;;4.00;99.90;;;;;;5010391;28;20045;-68
2023/12/07 07:31:17;;;;;;;80.53;27.20;;;4.00;99.90;;;;;;5010720;28;20033;-67
2023/12/07 07:33:43;;;;;;;89.55;28.75;;;4.00;99.90;;;;;;5009297;28;20026;-68
2023/12/07 07:36:11;;;;;;;81.63;29.42;;;4.10;99.90;;;;;;5011780;28;20386;-68
2023/12/07 07:38:37;;;;;;;89.63;29.25;;;4.10;99.90;;;;;;5006828;28;20021;-68
2023/12/07 07:41:03;;;;;;;86.32;27.80;;;4.10;99.90;;;;;;5011260;28;20067;-68
2023/12/07 07:43:29;;;;;;;88.20;28.73;;;4.10;99.90;;;;;;5011108;28;20109;-67
2023/12/07 07:45:55;;;;;;;87.00;30.27;;;4.00;99.90;;;;;;5011964;28;20026;-68
2023/12/07 07:48:22;;;;;;;92.35;31.50;;;3.90;99.90;;;;;;5010845;28;20030;-68
2023/12/07 07:50:47;;;;;;;86.35;29.65;;;3.90;99.90;;;;;;5011055;28;20498;-68
2023/12/07 07:53:13;;;;;;;85.85;30.33;;;3.90;99.90;;;;;;5007859;28;20026;-68
2023/12/07 07:55:39;;;;;;;84.80;31.40;;;3.90;99.90;;;;;;5010839;28;20164;-67
2023/12/07 07:58:04;;;;;;;79.80;29.23;;;3.90;99.90;;;;;;5010575;28;20034;-69
2023/12/07 08:00:32;;;;;;;78.35;28.95;;;4.00;99.90;;;;;;5008865;28;20033;-71
2023/12/07 08:02:58;;;;;;;80.20;29.35;;;4.00;99.90;;;;;;5010387;28;20390;-72
2023/12/07 08:05:24;;;;;;;77.78;28.30;;;3.90;99.90;;;;;;5010906;28;20022;-67
2023/12/07 08:07:50;;;;;;;77.25;28.52;;;4.00;99.90;;;;;;5008436;28;20536;-72
2023/12/07 08:10:15;;;;;;;76.93;29.17;;;4.00;99.90;;;;;;5010849;28;20025;-71
2023/12/07 08:12:41;;;;;;;74.32;26.95;;;4.00;99.90;;;;;;5010742;28;20406;-67
2023/12/07 08:15:10;;;;;;;75.15;27.20;;;4.00;99.90;;;;;;5009970;28;20502;-68
2023/12/07 08:17:38;;;;;;;68.78;27.00;;;4.00;99.90;;;;;;5007823;28;20652;-71
2023/12/07 08:20:06;;;;;;;69.15;27.02;;;4.10;99.90;;;;;;5010911;28;20076;-68
2023/12/07 08:22:31;;;;;;;78.63;28.75;;;4.10;99.90;;;;;;5008640;28;20033;-68
2023/12/07 08:24:57;;;;;;;69.85;26.42;;;4.20;99.90;;;;;;5010858;28;20770;-67
2023/12/07 08:27:22;;;;;;;68.75;25.88;;;4.20;99.90;;;;;;5007707;28;20752;-67
2023/12/07 08:29:48;;;;;;;63.47;27.17;;;4.30;99.90;;;;;;5009721;28;20052;-68
2023/12/07 08:32:15;;;;;;;60.65;25.27;;;4.40;99.90;;;;;;4992236;28;20030;-69
2023/12/07 08:34:41;;;;;;;63.00;26.80;;;4.40;99.90;;;;;;5005023;28;20423;-67
2023/12/07 08:37:07;;;;;;;66.43;27.75;;;4.40;99.90;;;;;;5009720;28;20026;-68
2023/12/07 08:39:33;;;;;;;64.82;27.00;;;4.40;99.90;;;;;;5010415;28;20025;-68
2023/12/07 08:41:59;;;;;;;70.30;28.40;;;4.30;99.90;;;;;;5006256;28;20038;-69
2023/12/07 08:44:24;;;;;;;71.32;27.02;;;4.30;99.90;;;;;;5008286;28;20394;-69
2023/12/07 08:46:50;;;;;;;71.38;27.67;;;4.40;99.90;;;;;;4991098;28;20875;-68
2023/12/07 08:49:16;;;;;;;65.70;27.40;;;4.50;99.90;;;;;;5009899;28;20037;-68
2023/12/07 08:51:41;;;;;;;60.90;26.50;;;4.50;99.90;;;;;;5009370;28;20182;-68
2023/12/07 08:54:07;;;;;;;62.92;25.13;;;4.60;99.90;;;;;;5009002;28;20437;-67
2023/12/07 08:56:33;;;;;;;60.90;26.80;;;4.50;99.90;;;;;;5010256;28;20026;-70
2023/12/07 08:58:59;;;;;;;62.50;25.02;;;4.50;99.90;;;;;;5007206;28;20478;-71
2023/12/07 09:01:26;;;;;;;84.57;27.50;;;4.50;99.90;;;;;;5010355;28;20030;-68
2023/12/07 09:03:52;;;;;;;66.40;25.65;;;4.40;99.90;;;;;;5007967;28;20473;-68
2023/12/07 09:06:17;;;;;;;62.58;24.75;;;4.40;99.90;;;;;;5010320;28;20036;-67
2023/12/07 09:08:43;;;;;;;65.53;25.95;;;4.50;99.90;;;;;;5007036;28;20077;-67
2023/12/07 09:11:09;;;;;;;65.30;25.20;;;4.50;99.90;;;;;;5010556;28;20104;-68
2023/12/07 09:13:35;;;;;;;57.28;25.42;;;4.50;99.90;;;;;;5009412;28;20027;-67
2023/12/07 09:16:01;;;;;;;63.08;24.70;;;4.50;99.90;;;;;;5010075;28;20108;-68
2023/12/07 09:18:27;;;;;;;58.15;23.30;;;4.60;99.90;;;;;;5008727;28;20491;-68
2023/12/07 09:20:52;;;;;;;54.35;23.20;;;4.60;99.90;;;;;;5012377;28;20037;-69
2023/12/07 09:23:18;;;;;;;57.47;25.65;;;4.50;99.90;;;;;;5008723;28;20022;-69
2023/12/07 09:25:50;;;;;;;58.95;24.95;;;4.50;99.90;;;;;;5013252;28;20430;-69
2023/12/07 09:28:16;;;;;;;56.60;24.55;;;4.50;99.90;;;;;;5009083;28;20084;-73
2023/12/07 09:30:41;;;;;;;57.67;23.73;;;4.50;99.90;;;;;;5012698;28;20466;-70
2023/12/07 09:33:07;;;;;;;65.20;24.98;;;4.40;99.90;;;;;;5011472;28;20029;-70
2023/12/07 09:35:39;;;;;;;53.80;24.02;;;4.40;99.90;;;;;;4995600;28;20022;-69
2023/12/07 09:38:05;;;;;;;54.35;22.55;;;4.40;99.90;;;;;;4972012;28;20439;-68
2023/12/07 09:40:31;;;;;;;47.83;23.20;;;4.30;99.90;;;;;;4996413;28;20065;-68
2023/12/07 09:42:56;;;;;;;49.50;22.02;;;4.40;99.90;;;;;;5000990;28;20041;-68
2023/12/07 09:45:22;;;;;;;50.05;22.05;;;4.50;99.90;;;;;;4994310;28;20142;-68
2023/12/07 09:47:53;;;;;;;42.03;21.90;;;4.50;99.90;;;;;;4996585;28;20030;-70
2023/12/07 09:50:23;;;;;;;41.92;19.75;;;4.50;99.90;;;;;;4994636;28;20034;-71
2023/12/07 09:52:50;;;;;;;36.70;19.75;;;4.50;99.90;;;;;;4996992;28;20036;-69
2023/12/07 09:55:18;;;;;;;35.63;17.67;;;4.50;99.90;;;;;;4997239;28;20398;-73
2023/12/07 09:57:44;;;;;;;34.00;18.35;;;4.50;99.90;;;;;;4996701;28;20133;-68
2023/12/07 10:00:14;;;;;;;33.38;18.35;;;4.60;99.90;;;;;;4994380;28;20387;-68
2023/12/07 10:02:43;;;;;;;37.88;19.90;;;4.60;99.90;;;;;;4994974;28;20030;-68
2023/12/07 10:05:13;;;;;;;38.40;19.35;;;4.60;99.90;;;;;;4995543;28;20542;-72
2023/12/07 10:07:40;;;;;;;36.83;19.00;;;4.70;99.90;;;;;;4993520;28;20038;-68
2023/12/07 10:10:07;;;;;;;32.70;17.63;;;4.70;99.90;;;;;;4995149;28;20042;-69
2023/12/07 10:12:34;;;;;;;32.28;17.95;;;4.70;99.90;;;;;;4996370;28;20061;-69
2023/12/07 10:15:13;;;;;;;31.48;16.67;;;4.80;99.90;;;;;;4998966;28;20030;-69
2023/12/07 10:17:48;;;;;;;29.25;16.33;;;4.80;99.90;;;;;;4980360;28;20022;-68
2023/12/07 10:20:23;;;;;;;26.35;15.65;;;4.70;99.90;;;;;;4996555;28;20054;-69
2023/12/07 10:23:18;;;;;;;29.17;16.27;;;4.70;99.90;;;;;;4997015;28;20105;-69
2023/12/07 10:25:44;;;;;;;30.50;17.20;;;4.80;99.90;;;;;;4995333;28;20080;-73
2023/12/07 10:28:13;;;;;;;27.38;16.30;;;4.80;99.90;;;;;;4994265;28;20437;-73
2023/12/07 10:30:41;;;;;;;28.27;17.27;;;4.90;99.90;;;;;;4995457;28;20037;-69
2023/12/07 10:33:07;;;;;;;29.80;16.33;;;5.00;99.90;;;;;;4998342;28;20102;-69
2023/12/07 10:35:33;;;;;;;29.92;15.70;;;5.00;99.90;;;;;;4996606;28;20420;-69
2023/12/07 10:37:59;;;;;;;33.78;18.15;;;5.00;99.90;;;;;;4986032;28;20081;-68
2023/12/07 10:40:25;;;;;;;31.95;18.58;;;4.90;99.90;;;;;;4997034;28;20112;-69
2023/12/07 10:42:56;;;;;;;30.98;17.60;;;5.10;99.90;;;;;;4994347;28;20153;-68
2023/12/07 10:45:26;;;;;;;30.67;16.67;;;5.10;99.90;;;;;;4995421;28;20054;-69
2023/12/07 10:47:53;;;;;;;28.17;17.60;;;5.10;99.90;;;;;;4999092;28;20018;-69
2023/12/07 10:50:23;;;;;;;30.23;16.90;;;5.10;99.90;;;;;;4992418;28;20502;-70
2023/12/07 10:52:54;;;;;;;26.90;16.48;;;5.20;99.90;;;;;;4982421;28;20030;-68
2023/12/07 10:55:29;;;;;;;34.10;18.95;;;5.10;99.90;;;;;;4995367;28;20462;-68
2023/12/07 10:57:55;;;;;;;34.33;17.75;;;5.10;99.90;;;;;;4977605;28;20040;-71
2023/12/07 11:00:27;;;;;;;34.17;17.88;;;5.00;99.90;;;;;;4984753;28;20023;-68
2023/12/07 11:02:53;;;;;;;34.58;18.02;;;4.90;99.90;;;;;;4995546;28;20026;-79
2023/12/07 11:05:19;;;;;;;29.95;17.08;;;5.00;99.90;;;;;;4994139;28;20018;-69
2023/12/07 11:07:57;;;;;;;29.65;16.35;;;5.10;99.90;;;;;;4985208;28;20041;-73
2023/12/07 11:11:03;;;;;;;31.20;18.35;;;5.00;99.90;;;;;;4996438;28;20060;-73
2023/12/07 11:13:30;;;;;;;33.05;17.85;;;5.10;99.90;;;;;;4993151;28;20125;-70
2023/12/07 11:15:57;;;;;;;32.38;17.73;;;5.20;99.90;;;;;;4993492;28;20116;-73
2023/12/07 11:18:28;;;;;;;30.52;17.23;;;5.30;99.90;;;;;;4994919;28;20104;-68
2023/12/07 11:20:55;;;;;;;30.35;17.33;;;5.30;99.90;;;;;;4995329;28;20491;-68
2023/12/07 11:23:22;;;;;;;28.60;16.90;;;5.20;99.90;;;;;;4991082;28;20121;-71
2023/12/07 11:25:50;;;;;;;30.80;17.58;;;5.30;99.90;;;;;;4992041;28;20023;-68
2023/12/07 11:28:16;;;;;;;34.58;18.15;;;5.30;99.90;;;;;;4995713;28;20037;-68
2023/12/07 11:30:44;;;;;;;32.05;17.70;;;5.40;99.90;;;;;;4994158;28;20613;-69
2023/12/07 11:33:11;;;;;;;28.65;17.55;;;5.30;99.90;;;;;;4995290;28;20430;-69
2023/12/07 11:36:02;;;;;;;28.23;16.67;;;5.30;99.90;;;;;;4990907;28;20487;-69
2023/12/07 11:38:27;;;;;;;32.03;17.40;;;5.30;99.90;;;;;;4993064;28;20030;-69
2023/12/07 11:40:58;;;;;;;34.92;17.50;;;5.30;99.90;;;;;;4994320;28;20121;-69
2023/12/07 11:43:32;;;;;;;31.05;16.98;;;5.40;99.90;;;;;;4994268;28;20091;-69
2023/12/07 11:45:58;;;;;;;33.15;16.85;;;5.40;99.90;;;;;;4993314;28;20026;-70
2023/12/07 11:48:24;;;;;;;30.55;16.05;;;5.50;99.90;;;;;;4978314;28;20033;-69
2023/12/07 11:51:07;;;;;;;30.92;16.77;;;5.50;99.90;;;;;;4995733;28;20041;-69
2023/12/07 11:53:37;;;;;;;33.28;17.02;;;5.50;99.90;;;;;;4995510;28;20026;-70
2023/12/07 11:56:08;;;;;;;28.80;16.50;;;5.50;99.90;;;;;;4984347;28;20026;-69
2023/12/07 11:58:35;;;;;;;28.15;17.73;;;5.40;99.90;;;;;;4996169;28;20030;-69
2023/12/07 12:01:01;;;;;;;29.05;16.58;;;5.50;99.90;;;;;;4990383;28;20497;-70
2023/12/07 12:03:29;;;;;;;30.13;16.38;;;5.60;99.90;;;;;;4993502;28;20062;-69
2023/12/07 12:05:55;;;;;;;28.25;16.10;;;5.60;99.90;;;;;;4988861;28;20021;-70
2023/12/07 12:08:21;;;;;;;27.63;17.25;;;5.70;99.90;;;;;;4993727;28;20029;-70
2023/12/07 12:10:50;;;;;;;31.25;17.40;;;5.70;99.90;;;;;;4991035;28;20486;-70
2023/12/07 12:13:16;;;;;;;29.92;16.52;;;5.80;99.90;;;;;;4981647;28;20038;-69
2023/12/07 12:15:42;;;;;;;31.60;16.67;;;5.80;99.90;;;;;;4993151;28;20038;-70
2023/12/07 12:18:08;;;;;;;27.95;15.57;;;5.90;99.90;;;;;;4995177;28;20020;-70
2023/12/07 12:20:34;;;;;;;31.80;15.95;;;5.80;99.90;;;;;;4994580;28;20023;-70
2023/12/07 12:23:00;;;;;;;27.90;17.17;;;5.90;99.90;;;;;;4990667;28;20029;-70
2023/12/07 12:25:31;;;;;;;25.92;15.38;;;5.90;99.90;;;;;;4995723;28;20383;-70
2023/12/07 12:27:59;;;;;;;26.13;15.80;;;5.90;99.90;;;;;;4993380;28;20026;-70
2023/12/07 12:30:25;;;;;;;26.63;15.07;;;6.00;99.90;;;;;;4993424;28;20083;-69
2023/12/07 12:32:51;;;;;;;27.08;15.68;;;5.90;99.90;;;;;;4993033;28;20058;-69
2023/12/07 12:35:17;;;;;;;27.33;15.73;;;6.00;99.90;;;;;;4993476;28;20030;-70